sensor_id;sensor_type;location;lat;lon;timestamp;P1;durP1;ratioP1;P2;durP2;ratioP2
42260;SDS011;27926;48.062;7.474;2023-04-15T00:00:04;4.65;;;2.92;;
42260;SDS011;27926;48.062;7.474;2023-04-15T00:02:29;5.05;;;2.28;;
42260;SDS011;27926;48.062;7.474;2023-04-15T00:04:54;6.93;;;2.65;;
42260;SDS011;27926;48.062;7.474;2023-04-15T00:07:18;4.32;;;1.85;;
42260;SDS011;27926;48.062;7.474;2023-04-15T00:09:43;13.45;;;2.88;;
42260;SDS011;27926;48.062;7.474;2023-04-15T00:12:07;13.00;;;3.50;;
42260;SDS011;27926;48.062;7.474;2023-04-15T00:14:33;8.45;;;2.80;;
42260;SDS011;27926;48.062;7.474;2023-04-15T00:17:01;8.50;;;2.38;;
42260;SDS011;27926;48.062;7.474;2023-04-15T00:19:27;4.70;;;2.65;;
42260;SDS011;27926;48.062;7.474;2023-04-15T00:21:51;7.47;;;2.90;;
42260;SDS011;27926;48.062;7.474;2023-04-15T00:24:16;7.97;;;4.45;;
42260;SDS011;27926;48.062;7.474;2023-04-15T00:26:41;4.30;;;2.67;;
42260;SDS011;27926;48.062;7.474;2023-04-15T00:29:05;6.68;;;1.88;;
42260;SDS011;27926;48.062;7.474;2023-04-15T00:31:30;7.38;;;3.85;;
42260;SDS011;27926;48.062;7.474;2023-04-15T00:33:55;9.07;;;3.38;;
42260;SDS011;27926;48.062;7.474;2023-04-15T00:36:19;11.07;;;3.45;;
42260;SDS011;27926;48.062;7.474;2023-04-15T00:38:44;5.00;;;2.67;;
42260;SDS011;27926;48.062;7.474;2023-04-15T00:41:09;6.30;;;2.40;;
42260;SDS011;27926;48.062;7.474;2023-04-15T00:43:34;6.72;;;2.88;;
42260;SDS011;27926;48.062;7.474;2023-04-15T00:45:59;9.80;;;2.67;;
42260;SDS011;27926;48.062;7.474;2023-04-15T00:48:25;12.90;;;2.72;;
42260;SDS011;27926;48.062;7.474;2023-04-15T00:50:51;5.38;;;1.90;;
42260;SDS011;27926;48.062;7.474;2023-04-15T00:53:15;9.98;;;3.75;;
42260;SDS011;27926;48.062;7.474;2023-04-15T00:55:40;7.15;;;3.33;;
42260;SDS011;27926;48.062;7.474;2023-04-15T00:58:05;10.67;;;3.00;;
42260;SDS011;27926;48.062;7.474;2023-04-15T01:00:30;9.35;;;3.50;;
42260;SDS011;27926;48.062;7.474;2023-04-15T01:02:54;10.57;;;3.25;;
42260;SDS011;27926;48.062;7.474;2023-04-15T01:05:19;14.95;;;8.10;;
42260;SDS011;27926;48.062;7.474;2023-04-15T01:07:44;8.95;;;5.43;;
42260;SDS011;27926;48.062;7.474;2023-04-15T01:10:10;7.82;;;3.88;;
42260;SDS011;27926;48.062;7.474;2023-04-15T01:12:34;5.20;;;2.85;;
42260;SDS011;27926;48.062;7.474;2023-04-15T01:15:00;10.23;;;2.80;;
42260;SDS011;27926;48.062;7.474;2023-04-15T01:17:25;14.30;;;9.30;;
42260;SDS011;27926;48.062;7.474;2023-04-15T01:19:50;10.98;;;3.72;;
42260;SDS011;27926;48.062;7.474;2023-04-15T01:22:15;6.00;;;3.07;;
42260;SDS011;27926;48.062;7.474;2023-04-15T01:24:40;7.15;;;2.75;;
42260;SDS011;27926;48.062;7.474;2023-04-15T01:27:07;10.65;;;3.53;;
42260;SDS011;27926;48.062;7.474;2023-04-15T01:29:37;12.27;;;3.28;;
42260;SDS011;27926;48.062;7.474;2023-04-15T01:32:02;15.10;;;4.30;;
42260;SDS011;27926;48.062;7.474;2023-04-15T01:34:27;11.02;;;8.05;;
42260;SDS011;27926;48.062;7.474;2023-04-15T01:36:52;7.60;;;3.70;;
42260;SDS011;27926;48.062;7.474;2023-04-15T01:39:16;5.35;;;2.75;;
42260;SDS011;27926;48.062;7.474;2023-04-15T01:41:41;10.95;;;3.92;;
42260;SDS011;27926;48.062;7.474;2023-04-15T01:44:05;10.82;;;3.70;;
42260;SDS011;27926;48.062;7.474;2023-04-15T01:46:31;5.38;;;2.20;;
42260;SDS011;27926;48.062;7.474;2023-04-15T01:48:55;3.25;;;1.98;;
42260;SDS011;27926;48.062;7.474;2023-04-15T01:51:20;6.57;;;2.90;;
42260;SDS011;27926;48.062;7.474;2023-04-15T01:53:44;5.65;;;2.30;;
42260;SDS011;27926;48.062;7.474;2023-04-15T01:56:09;9.93;;;2.80;;
42260;SDS011;27926;48.062;7.474;2023-04-15T01:58:34;7.15;;;2.40;;
42260;SDS011;27926;48.062;7.474;2023-04-15T02:00:59;6.03;;;1.70;;
42260;SDS011;27926;48.062;7.474;2023-04-15T02:03:25;8.43;;;2.08;;
42260;SDS011;27926;48.062;7.474;2023-04-15T02:05:52;13.75;;;2.75;;
42260;SDS011;27926;48.062;7.474;2023-04-15T02:08:16;9.38;;;2.05;;
42260;SDS011;27926;48.062;7.474;2023-04-15T02:10:41;8.43;;;2.97;;
42260;SDS011;27926;48.062;7.474;2023-04-15T02:13:05;3.22;;;1.95;;
42260;SDS011;27926;48.062;7.474;2023-04-15T02:15:30;7.85;;;2.38;;
42260;SDS011;27926;48.062;7.474;2023-04-15T02:17:56;9.73;;;2.65;;
42260;SDS011;27926;48.062;7.474;2023-04-15T02:20:22;7.28;;;2.20;;
42260;SDS011;27926;48.062;7.474;2023-04-15T02:22:46;5.22;;;1.95;;
42260;SDS011;27926;48.062;7.474;2023-04-15T02:25:11;10.87;;;2.13;;
42260;SDS011;27926;48.062;7.474;2023-04-15T02:27:36;6.40;;;2.05;;
42260;SDS011;27926;48.062;7.474;2023-04-15T02:30:01;5.90;;;2.00;;
42260;SDS011;27926;48.062;7.474;2023-04-15T02:32:26;5.65;;;2.40;;
42260;SDS011;27926;48.062;7.474;2023-04-15T02:34:54;12.48;;;2.75;;
42260;SDS011;27926;48.062;7.474;2023-04-15T02:37:19;5.80;;;2.50;;
42260;SDS011;27926;48.062;7.474;2023-04-15T02:39:44;8.07;;;2.60;;
42260;SDS011;27926;48.062;7.474;2023-04-15T02:42:09;9.20;;;2.35;;
42260;SDS011;27926;48.062;7.474;2023-04-15T02:44:34;10.43;;;2.40;;
42260;SDS011;27926;48.062;7.474;2023-04-15T02:46:59;7.55;;;2.65;;
42260;SDS011;27926;48.062;7.474;2023-04-15T02:49:24;6.07;;;2.30;;
42260;SDS011;27926;48.062;7.474;2023-04-15T02:51:49;7.68;;;2.53;;
42260;SDS011;27926;48.062;7.474;2023-04-15T02:54:15;4.45;;;2.05;;
42260;SDS011;27926;48.062;7.474;2023-04-15T02:56:40;6.28;;;3.33;;
42260;SDS011;27926;48.062;7.474;2023-04-15T02:59:04;9.57;;;2.75;;
42260;SDS011;27926;48.062;7.474;2023-04-15T03:01:29;13.25;;;2.33;;
42260;SDS011;27926;48.062;7.474;2023-04-15T03:03:54;8.70;;;2.75;;
42260;SDS011;27926;48.062;7.474;2023-04-15T03:06:19;5.88;;;2.00;;
42260;SDS011;27926;48.062;7.474;2023-04-15T03:08:43;7.15;;;2.35;;
42260;SDS011;27926;48.062;7.474;2023-04-15T03:11:08;6.45;;;1.92;;
42260;SDS011;27926;48.062;7.474;2023-04-15T03:13:33;4.82;;;2.30;;
42260;SDS011;27926;48.062;7.474;2023-04-15T03:15:58;5.78;;;2.00;;
42260;SDS011;27926;48.062;7.474;2023-04-15T03:18:22;4.38;;;2.47;;
42260;SDS011;27926;48.062;7.474;2023-04-15T03:20:47;6.70;;;2.10;;
42260;SDS011;27926;48.062;7.474;2023-04-15T03:23:11;10.07;;;3.35;;
42260;SDS011;27926;48.062;7.474;2023-04-15T03:25:36;11.90;;;2.50;;
42260;SDS011;27926;48.062;7.474;2023-04-15T03:28:00;6.07;;;2.13;;
42260;SDS011;27926;48.062;7.474;2023-04-15T03:30:25;4.60;;;2.05;;
42260;SDS011;27926;48.062;7.474;2023-04-15T03:32:50;10.35;;;2.88;;
42260;SDS011;27926;48.062;7.474;2023-04-15T03:35:14;7.32;;;2.63;;
42260;SDS011;27926;48.062;7.474;2023-04-15T03:37:39;7.03;;;2.67;;
42260;SDS011;27926;48.062;7.474;2023-04-15T03:40:04;9.02;;;2.55;;
42260;SDS011;27926;48.062;7.474;2023-04-15T03:42:29;8.07;;;3.35;;
42260;SDS011;27926;48.062;7.474;2023-04-15T03:44:54;11.60;;;2.72;;
42260;SDS011;27926;48.062;7.474;2023-04-15T03:47:18;8.95;;;2.55;;
42260;SDS011;27926;48.062;7.474;2023-04-15T03:52:09;6.45;;;2.30;;
42260;SDS011;27926;48.062;7.474;2023-04-15T03:54:34;9.35;;;2.47;;
42260;SDS011;27926;48.062;7.474;2023-04-15T03:56:58;8.40;;;2.58;;
42260;SDS011;27926;48.062;7.474;2023-04-15T03:59:24;7.53;;;2.72;;
42260;SDS011;27926;48.062;7.474;2023-04-15T04:01:48;4.07;;;1.98;;
42260;SDS011;27926;48.062;7.474;2023-04-15T04:04:13;9.60;;;2.45;;
42260;SDS011;27926;48.062;7.474;2023-04-15T04:06:38;4.32;;;2.22;;
42260;SDS011;27926;48.062;7.474;2023-04-15T04:09:03;8.60;;;2.40;;
42260;SDS011;27926;48.062;7.474;2023-04-15T04:11:27;6.90;;;2.55;;
42260;SDS011;27926;48.062;7.474;2023-04-15T04:13:52;6.65;;;2.58;;
42260;SDS011;27926;48.062;7.474;2023-04-15T04:16:17;6.70;;;3.03;;
42260;SDS011;27926;48.062;7.474;2023-04-15T04:18:41;10.30;;;2.38;;
42260;SDS011;27926;48.062;7.474;2023-04-15T04:21:06;8.88;;;2.50;;
42260;SDS011;27926;48.062;7.474;2023-04-15T04:23:31;4.70;;;1.95;;
42260;SDS011;27926;48.062;7.474;2023-04-15T04:25:56;9.95;;;2.30;;
42260;SDS011;27926;48.062;7.474;2023-04-15T04:28:20;3.80;;;2.20;;
42260;SDS011;27926;48.062;7.474;2023-04-15T04:30:45;5.75;;;2.08;;
42260;SDS011;27926;48.062;7.474;2023-04-15T04:33:10;9.02;;;2.35;;
42260;SDS011;27926;48.062;7.474;2023-04-15T04:35:34;5.68;;;2.05;;
42260;SDS011;27926;48.062;7.474;2023-04-15T04:38:00;9.43;;;2.50;;
42260;SDS011;27926;48.062;7.474;2023-04-15T04:40:25;9.60;;;2.70;;
42260;SDS011;27926;48.062;7.474;2023-04-15T04:42:50;9.40;;;3.10;;
42260;SDS011;27926;48.062;7.474;2023-04-15T04:45:15;13.82;;;2.88;;
42260;SDS011;27926;48.062;7.474;2023-04-15T04:47:39;15.10;;;3.20;;
42260;SDS011;27926;48.062;7.474;2023-04-15T04:50:04;5.82;;;2.53;;
42260;SDS011;27926;48.062;7.474;2023-04-15T04:52:29;9.02;;;3.60;;
42260;SDS011;27926;48.062;7.474;2023-04-15T04:54:54;12.88;;;3.97;;
42260;SDS011;27926;48.062;7.474;2023-04-15T04:57:19;14.57;;;2.97;;
42260;SDS011;27926;48.062;7.474;2023-04-15T04:59:43;10.20;;;3.08;;
42260;SDS011;27926;48.062;7.474;2023-04-15T05:02:08;7.30;;;3.08;;
42260;SDS011;27926;48.062;7.474;2023-04-15T05:04:33;14.77;;;8.50;;
42260;SDS011;27926;48.062;7.474;2023-04-15T05:06:57;12.68;;;6.63;;
42260;SDS011;27926;48.062;7.474;2023-04-15T05:09:22;9.77;;;3.80;;
42260;SDS011;27926;48.062;7.474;2023-04-15T05:11:47;7.15;;;3.25;;
42260;SDS011;27926;48.062;7.474;2023-04-15T05:14:11;11.27;;;3.67;;
42260;SDS011;27926;48.062;7.474;2023-04-15T05:16:36;8.32;;;2.60;;
42260;SDS011;27926;48.062;7.474;2023-04-15T05:19:00;11.68;;;3.10;;
42260;SDS011;27926;48.062;7.474;2023-04-15T05:21:25;7.28;;;2.65;;
42260;SDS011;27926;48.062;7.474;2023-04-15T05:23:50;6.17;;;2.93;;
42260;SDS011;27926;48.062;7.474;2023-04-15T05:26:15;7.53;;;2.65;;
42260;SDS011;27926;48.062;7.474;2023-04-15T05:28:40;6.13;;;2.67;;
42260;SDS011;27926;48.062;7.474;2023-04-15T05:31:05;14.80;;;3.28;;
42260;SDS011;27926;48.062;7.474;2023-04-15T05:33:30;7.60;;;2.53;;
42260;SDS011;27926;48.062;7.474;2023-04-15T05:35:54;9.88;;;2.97;;
42260;SDS011;27926;48.062;7.474;2023-04-15T05:38:19;7.20;;;3.05;;
42260;SDS011;27926;48.062;7.474;2023-04-15T05:40:44;6.60;;;3.25;;
42260;SDS011;27926;48.062;7.474;2023-04-15T05:43:08;10.43;;;3.10;;
42260;SDS011;27926;48.062;7.474;2023-04-15T05:45:33;10.32;;;5.15;;
42260;SDS011;27926;48.062;7.474;2023-04-15T05:47:58;11.30;;;4.90;;
42260;SDS011;27926;48.062;7.474;2023-04-15T05:50:22;13.57;;;5.07;;
42260;SDS011;27926;48.062;7.474;2023-04-15T05:52:47;16.92;;;5.20;;
42260;SDS011;27926;48.062;7.474;2023-04-15T05:55:12;11.73;;;3.88;;
42260;SDS011;27926;48.062;7.474;2023-04-15T05:57:37;11.52;;;3.63;;
42260;SDS011;27926;48.062;7.474;2023-04-15T06:00:02;11.90;;;4.32;;
42260;SDS011;27926;48.062;7.474;2023-04-15T06:02:28;7.72;;;4.95;;
42260;SDS011;27926;48.062;7.474;2023-04-15T06:04:52;10.80;;;3.55;;
42260;SDS011;27926;48.062;7.474;2023-04-15T06:07:17;6.57;;;3.00;;
42260;SDS011;27926;48.062;7.474;2023-04-15T06:09:42;8.80;;;3.72;;
42260;SDS011;27926;48.062;7.474;2023-04-15T06:12:07;9.38;;;3.38;;
42260;SDS011;27926;48.062;7.474;2023-04-15T06:14:35;8.38;;;3.05;;
42260;SDS011;27926;48.062;7.474;2023-04-15T06:16:59;7.80;;;3.20;;
42260;SDS011;27926;48.062;7.474;2023-04-15T06:19:24;15.45;;;3.38;;
42260;SDS011;27926;48.062;7.474;2023-04-15T06:21:50;9.23;;;3.20;;
42260;SDS011;27926;48.062;7.474;2023-04-15T06:24:15;8.10;;;3.92;;
42260;SDS011;27926;48.062;7.474;2023-04-15T06:26:40;7.70;;;4.00;;
42260;SDS011;27926;48.062;7.474;2023-04-15T06:29:04;10.13;;;3.72;;
42260;SDS011;27926;48.062;7.474;2023-04-15T06:31:29;10.50;;;3.85;;
42260;SDS011;27926;48.062;7.474;2023-04-15T06:33:54;12.60;;;4.85;;
42260;SDS011;27926;48.062;7.474;2023-04-15T06:36:19;10.25;;;4.70;;
42260;SDS011;27926;48.062;7.474;2023-04-15T06:38:44;9.20;;;4.50;;
42260;SDS011;27926;48.062;7.474;2023-04-15T06:41:08;13.35;;;3.33;;
42260;SDS011;27926;48.062;7.474;2023-04-15T06:43:33;18.77;;;4.53;;
42260;SDS011;27926;48.062;7.474;2023-04-15T06:45:58;12.13;;;4.60;;
42260;SDS011;27926;48.062;7.474;2023-04-15T06:48:23;11.18;;;4.60;;
42260;SDS011;27926;48.062;7.474;2023-04-15T06:50:48;18.02;;;4.82;;
42260;SDS011;27926;48.062;7.474;2023-04-15T06:53:12;15.30;;;3.97;;
42260;SDS011;27926;48.062;7.474;2023-04-15T06:55:37;12.43;;;4.50;;
42260;SDS011;27926;48.062;7.474;2023-04-15T06:58:03;7.07;;;3.30;;
42260;SDS011;27926;48.062;7.474;2023-04-15T07:00:27;9.27;;;3.33;;
42260;SDS011;27926;48.062;7.474;2023-04-15T07:02:52;5.78;;;3.10;;
42260;SDS011;27926;48.062;7.474;2023-04-15T07:05:18;10.25;;;2.72;;
42260;SDS011;27926;48.062;7.474;2023-04-15T07:07:43;11.05;;;2.83;;
42260;SDS011;27926;48.062;7.474;2023-04-15T07:10:08;7.40;;;2.63;;
42260;SDS011;27926;48.062;7.474;2023-04-15T07:12:36;13.35;;;3.15;;
42260;SDS011;27926;48.062;7.474;2023-04-15T07:15:00;8.38;;;2.55;;
42260;SDS011;27926;48.062;7.474;2023-04-15T07:17:25;6.70;;;3.15;;
42260;SDS011;27926;48.062;7.474;2023-04-15T07:19:50;10.05;;;3.03;;
42260;SDS011;27926;48.062;7.474;2023-04-15T07:22:15;8.45;;;2.67;;
42260;SDS011;27926;48.062;7.474;2023-04-15T07:24:39;7.03;;;2.42;;
42260;SDS011;27926;48.062;7.474;2023-04-15T07:27:04;6.93;;;1.90;;
42260;SDS011;27926;48.062;7.474;2023-04-15T07:29:29;9.25;;;2.83;;
42260;SDS011;27926;48.062;7.474;2023-04-15T07:31:53;7.25;;;2.22;;
42260;SDS011;27926;48.062;7.474;2023-04-15T07:34:20;6.35;;;2.40;;
42260;SDS011;27926;48.062;7.474;2023-04-15T07:36:47;7.68;;;2.08;;
42260;SDS011;27926;48.062;7.474;2023-04-15T07:39:15;6.35;;;2.45;;
42260;SDS011;27926;48.062;7.474;2023-04-15T07:41:39;10.27;;;2.95;;
42260;SDS011;27926;48.062;7.474;2023-04-15T07:44:04;10.03;;;3.33;;
42260;SDS011;27926;48.062;7.474;2023-04-15T07:46:29;14.00;;;3.05;;
42260;SDS011;27926;48.062;7.474;2023-04-15T07:48:54;8.05;;;2.83;;
42260;SDS011;27926;48.062;7.474;2023-04-15T07:51:19;9.07;;;2.53;;
42260;SDS011;27926;48.062;7.474;2023-04-15T07:53:44;17.58;;;2.78;;
42260;SDS011;27926;48.062;7.474;2023-04-15T07:56:08;5.35;;;2.42;;
42260;SDS011;27926;48.062;7.474;2023-04-15T07:58:33;10.07;;;2.38;;
42260;SDS011;27926;48.062;7.474;2023-04-15T08:00:58;8.23;;;2.70;;
42260;SDS011;27926;48.062;7.474;2023-04-15T08:03:22;11.18;;;2.83;;
42260;SDS011;27926;48.062;7.474;2023-04-15T08:05:48;9.05;;;2.75;;
42260;SDS011;27926;48.062;7.474;2023-04-15T08:08:12;10.45;;;3.25;;
42260;SDS011;27926;48.062;7.474;2023-04-15T08:10:37;13.32;;;4.03;;
42260;SDS011;27926;48.062;7.474;2023-04-15T08:13:02;13.48;;;3.67;;
42260;SDS011;27926;48.062;7.474;2023-04-15T08:15:26;8.32;;;3.42;;
42260;SDS011;27926;48.062;7.474;2023-04-15T08:17:51;8.27;;;1.95;;
42260;SDS011;27926;48.062;7.474;2023-04-15T08:20:16;7.85;;;3.30;;
42260;SDS011;27926;48.062;7.474;2023-04-15T08:22:40;9.30;;;3.28;;
42260;SDS011;27926;48.062;7.474;2023-04-15T08:25:05;10.10;;;2.40;;
42260;SDS011;27926;48.062;7.474;2023-04-15T08:27:30;6.65;;;2.60;;
42260;SDS011;27926;48.062;7.474;2023-04-15T08:29:55;13.25;;;2.55;;
42260;SDS011;27926;48.062;7.474;2023-04-15T08:32:19;6.05;;;2.33;;
42260;SDS011;27926;48.062;7.474;2023-04-15T08:34:44;11.32;;;2.30;;
42260;SDS011;27926;48.062;7.474;2023-04-15T08:37:08;9.00;;;2.63;;
42260;SDS011;27926;48.062;7.474;2023-04-15T08:39:33;10.30;;;3.28;;
42260;SDS011;27926;48.062;7.474;2023-04-15T08:41:59;7.80;;;2.90;;
42260;SDS011;27926;48.062;7.474;2023-04-15T08:44:32;6.88;;;2.55;;
42260;SDS011;27926;48.062;7.474;2023-04-15T08:47:01;9.77;;;2.75;;
42260;SDS011;27926;48.062;7.474;2023-04-15T08:49:29;20.08;;;3.22;;
42260;SDS011;27926;48.062;7.474;2023-04-15T08:51:56;7.90;;;2.70;;
42260;SDS011;27926;48.062;7.474;2023-04-15T08:54:22;9.48;;;3.17;;
42260;SDS011;27926;48.062;7.474;2023-04-15T08:56:47;11.10;;;3.33;;
42260;SDS011;27926;48.062;7.474;2023-04-15T08:59:12;10.20;;;2.42;;
42260;SDS011;27926;48.062;7.474;2023-04-15T09:01:36;8.75;;;2.83;;
42260;SDS011;27926;48.062;7.474;2023-04-15T09:04:01;9.07;;;3.33;;
42260;SDS011;27926;48.062;7.474;2023-04-15T09:06:26;11.20;;;3.47;;
42260;SDS011;27926;48.062;7.474;2023-04-15T09:08:51;5.95;;;2.67;;
42260;SDS011;27926;48.062;7.474;2023-04-15T09:11:16;9.30;;;3.08;;
42260;SDS011;27926;48.062;7.474;2023-04-15T09:13:41;14.37;;;3.77;;
42260;SDS011;27926;48.062;7.474;2023-04-15T09:16:05;10.95;;;3.63;;
42260;SDS011;27926;48.062;7.474;2023-04-15T09:18:32;17.00;;;4.25;;
42260;SDS011;27926;48.062;7.474;2023-04-15T09:21:04;15.13;;;4.13;;
42260;SDS011;27926;48.062;7.474;2023-04-15T09:23:30;8.23;;;3.95;;
42260;SDS011;27926;48.062;7.474;2023-04-15T09:25:56;10.82;;;3.88;;
42260;SDS011;27926;48.062;7.474;2023-04-15T09:28:24;9.35;;;3.55;;
42260;SDS011;27926;48.062;7.474;2023-04-15T09:30:50;6.47;;;3.00;;
42260;SDS011;27926;48.062;7.474;2023-04-15T09:33:18;10.02;;;3.40;;
42260;SDS011;27926;48.062;7.474;2023-04-15T09:35:55;10.93;;;3.13;;
42260;SDS011;27926;48.062;7.474;2023-04-15T09:38:29;9.43;;;3.80;;
42260;SDS011;27926;48.062;7.474;2023-04-15T09:40:54;7.13;;;3.03;;
42260;SDS011;27926;48.062;7.474;2023-04-15T09:43:19;7.15;;;2.92;;
42260;SDS011;27926;48.062;7.474;2023-04-15T09:48:23;12.20;;;3.20;;
42260;SDS011;27926;48.062;7.474;2023-04-15T09:50:56;4.68;;;2.03;;
42260;SDS011;27926;48.062;7.474;2023-04-15T09:53:22;3.25;;;1.33;;
42260;SDS011;27926;48.062;7.474;2023-04-15T09:55:49;5.88;;;1.50;;
42260;SDS011;27926;48.062;7.474;2023-04-15T09:58:18;2.08;;;1.27;;
42260;SDS011;27926;48.062;7.474;2023-04-15T10:00:50;2.42;;;1.10;;
42260;SDS011;27926;48.062;7.474;2023-04-15T10:03:20;10.23;;;1.25;;
42260;SDS011;27926;48.062;7.474;2023-04-15T10:05:49;4.28;;;1.35;;
42260;SDS011;27926;48.062;7.474;2023-04-15T10:08:19;9.30;;;1.42;;
42260;SDS011;27926;48.062;7.474;2023-04-15T10:10:47;7.35;;;1.58;;
42260;SDS011;27926;48.062;7.474;2023-04-15T10:13:12;6.20;;;1.50;;
42260;SDS011;27926;48.062;7.474;2023-04-15T10:15:40;4.68;;;1.27;;
42260;SDS011;27926;48.062;7.474;2023-04-15T10:18:07;5.40;;;1.63;;
42260;SDS011;27926;48.062;7.474;2023-04-15T10:20:34;3.08;;;1.42;;
42260;SDS011;27926;48.062;7.474;2023-04-15T10:23:00;5.43;;;1.55;;
42260;SDS011;27926;48.062;7.474;2023-04-15T10:25:25;4.23;;;1.83;;
42260;SDS011;27926;48.062;7.474;2023-04-15T10:27:51;7.05;;;1.55;;
42260;SDS011;27926;48.062;7.474;2023-04-15T10:30:17;5.00;;;1.30;;
42260;SDS011;27926;48.062;7.474;2023-04-15T10:32:42;10.15;;;1.65;;
42260;SDS011;27926;48.062;7.474;2023-04-15T10:35:08;5.07;;;1.27;;
42260;SDS011;27926;48.062;7.474;2023-04-15T10:37:34;4.57;;;1.80;;
42260;SDS011;27926;48.062;7.474;2023-04-15T10:40:00;6.38;;;1.48;;
42260;SDS011;27926;48.062;7.474;2023-04-15T10:42:45;4.25;;;1.63;;
42260;SDS011;27926;48.062;7.474;2023-04-15T10:45:14;4.50;;;1.00;;
42260;SDS011;27926;48.062;7.474;2023-04-15T10:47:40;5.07;;;1.30;;
42260;SDS011;27926;48.062;7.474;2023-04-15T10:52:31;1.58;;;0.70;;
42260;SDS011;27926;48.062;7.474;2023-04-15T10:55:02;1.88;;;1.05;;
42260;SDS011;27926;48.062;7.474;2023-04-15T10:57:41;4.80;;;1.30;;
42260;SDS011;27926;48.062;7.474;2023-04-15T11:02:47;7.22;;;1.65;;
42260;SDS011;27926;48.062;7.474;2023-04-15T11:05:17;7.18;;;1.10;;
42260;SDS011;27926;48.062;7.474;2023-04-15T11:12:41;6.13;;;1.20;;
42260;SDS011;27926;48.062;7.474;2023-04-15T11:17:52;3.67;;;0.95;;
42260;SDS011;27926;48.062;7.474;2023-04-15T11:20:18;3.10;;;1.20;;
42260;SDS011;27926;48.062;7.474;2023-04-15T11:22:46;3.53;;;1.42;;
42260;SDS011;27926;48.062;7.474;2023-04-15T11:25:22;2.33;;;1.10;;
42260;SDS011;27926;48.062;7.474;2023-04-15T11:27:47;5.65;;;1.00;;
42260;SDS011;27926;48.062;7.474;2023-04-15T11:30:17;4.77;;;1.13;;
42260;SDS011;27926;48.062;7.474;2023-04-15T11:32:44;6.00;;;1.60;;
42260;SDS011;27926;48.062;7.474;2023-04-15T11:35:08;6.75;;;1.13;;
42260;SDS011;27926;48.062;7.474;2023-04-15T11:37:33;4.43;;;1.10;;
42260;SDS011;27926;48.062;7.474;2023-04-15T11:39:58;12.75;;;2.40;;
42260;SDS011;27926;48.062;7.474;2023-04-15T11:42:22;3.47;;;1.20;;
42260;SDS011;27926;48.062;7.474;2023-04-15T11:44:47;5.30;;;1.13;;
42260;SDS011;27926;48.062;7.474;2023-04-15T11:47:21;6.82;;;1.40;;
42260;SDS011;27926;48.062;7.474;2023-04-15T11:49:46;6.18;;;1.63;;
42260;SDS011;27926;48.062;7.474;2023-04-15T11:52:11;5.25;;;1.50;;
42260;SDS011;27926;48.062;7.474;2023-04-15T11:54:36;8.02;;;1.40;;
42260;SDS011;27926;48.062;7.474;2023-04-15T11:57:00;6.75;;;1.60;;
42260;SDS011;27926;48.062;7.474;2023-04-15T11:59:26;3.50;;;1.40;;
42260;SDS011;27926;48.062;7.474;2023-04-15T12:02:10;2.97;;;1.40;;
42260;SDS011;27926;48.062;7.474;2023-04-15T12:04:36;5.10;;;1.25;;
42260;SDS011;27926;48.062;7.474;2023-04-15T12:07:03;7.55;;;1.30;;
42260;SDS011;27926;48.062;7.474;2023-04-15T12:09:28;4.25;;;1.65;;
42260;SDS011;27926;48.062;7.474;2023-04-15T12:11:56;8.98;;;3.78;;
42260;SDS011;27926;48.062;7.474;2023-04-15T12:14:24;4.05;;;1.60;;
42260;SDS011;27926;48.062;7.474;2023-04-15T12:16:53;7.20;;;2.58;;
42260;SDS011;27926;48.062;7.474;2023-04-15T12:21:49;4.63;;;1.25;;
42260;SDS011;27926;48.062;7.474;2023-04-15T12:24:18;5.07;;;1.95;;
42260;SDS011;27926;48.062;7.474;2023-04-15T12:26:52;8.30;;;1.85;;
42260;SDS011;27926;48.062;7.474;2023-04-15T12:29:24;4.85;;;1.50;;
42260;SDS011;27926;48.062;7.474;2023-04-15T12:31:50;4.07;;;1.35;;
42260;SDS011;27926;48.062;7.474;2023-04-15T12:34:16;7.05;;;1.60;;
42260;SDS011;27926;48.062;7.474;2023-04-15T12:36:42;11.18;;;1.63;;
42260;SDS011;27926;48.062;7.474;2023-04-15T12:39:07;3.75;;;1.25;;
42260;SDS011;27926;48.062;7.474;2023-04-15T12:41:32;5.88;;;1.27;;
42260;SDS011;27926;48.062;7.474;2023-04-15T12:43:57;4.25;;;1.08;;
42260;SDS011;27926;48.062;7.474;2023-04-15T12:46:21;3.38;;;1.13;;
42260;SDS011;27926;48.062;7.474;2023-04-15T12:48:46;5.30;;;1.38;;
42260;SDS011;27926;48.062;7.474;2023-04-15T12:51:11;2.83;;;1.00;;
42260;SDS011;27926;48.062;7.474;2023-04-15T12:53:35;11.80;;;2.22;;
42260;SDS011;27926;48.062;7.474;2023-04-15T12:56:03;9.57;;;1.50;;
42260;SDS011;27926;48.062;7.474;2023-04-15T12:58:28;5.35;;;1.00;;
42260;SDS011;27926;48.062;7.474;2023-04-15T13:00:52;2.97;;;1.35;;
42260;SDS011;27926;48.062;7.474;2023-04-15T13:03:20;2.45;;;0.77;;
42260;SDS011;27926;48.062;7.474;2023-04-15T13:05:44;9.50;;;1.17;;
42260;SDS011;27926;48.062;7.474;2023-04-15T13:08:09;4.63;;;1.30;;
42260;SDS011;27926;48.062;7.474;2023-04-15T13:10:34;3.67;;;1.42;;
42260;SDS011;27926;48.062;7.474;2023-04-15T13:13:02;6.88;;;1.00;;
42260;SDS011;27926;48.062;7.474;2023-04-15T13:15:27;3.10;;;1.17;;
42260;SDS011;27926;48.062;7.474;2023-04-15T13:17:51;7.78;;;1.30;;
42260;SDS011;27926;48.062;7.474;2023-04-15T13:20:16;3.27;;;1.00;;
42260;SDS011;27926;48.062;7.474;2023-04-15T13:22:41;6.13;;;2.90;;
42260;SDS011;27926;48.062;7.474;2023-04-15T13:25:06;5.57;;;1.50;;
42260;SDS011;27926;48.062;7.474;2023-04-15T13:27:31;2.88;;;0.88;;
42260;SDS011;27926;48.062;7.474;2023-04-15T13:29:56;3.60;;;1.00;;
42260;SDS011;27926;48.062;7.474;2023-04-15T13:32:21;3.45;;;0.73;;
42260;SDS011;27926;48.062;7.474;2023-04-15T13:34:45;4.45;;;1.17;;
42260;SDS011;27926;48.062;7.474;2023-04-15T13:37:10;3.13;;;1.40;;
42260;SDS011;27926;48.062;7.474;2023-04-15T13:39:35;5.05;;;1.70;;
42260;SDS011;27926;48.062;7.474;2023-04-15T13:41:59;6.97;;;2.17;;
42260;SDS011;27926;48.062;7.474;2023-04-15T13:44:24;7.00;;;1.48;;
42260;SDS011;27926;48.062;7.474;2023-04-15T13:46:48;7.57;;;1.60;;
42260;SDS011;27926;48.062;7.474;2023-04-15T13:49:13;6.38;;;1.63;;
42260;SDS011;27926;48.062;7.474;2023-04-15T13:51:38;3.10;;;0.88;;
42260;SDS011;27926;48.062;7.474;2023-04-15T13:54:03;3.30;;;1.13;;
42260;SDS011;27926;48.062;7.474;2023-04-15T13:56:28;7.38;;;1.95;;
42260;SDS011;27926;48.062;7.474;2023-04-15T13:58:52;2.83;;;1.10;;
42260;SDS011;27926;48.062;7.474;2023-04-15T14:01:21;3.95;;;1.40;;
42260;SDS011;27926;48.062;7.474;2023-04-15T14:03:46;8.00;;;1.80;;
42260;SDS011;27926;48.062;7.474;2023-04-15T14:06:10;6.75;;;1.50;;
42260;SDS011;27926;48.062;7.474;2023-04-15T14:08:35;5.50;;;0.93;;
42260;SDS011;27926;48.062;7.474;2023-04-15T14:11:00;5.30;;;1.50;;
42260;SDS011;27926;48.062;7.474;2023-04-15T14:13:24;8.18;;;1.20;;
42260;SDS011;27926;48.062;7.474;2023-04-15T14:15:49;4.63;;;1.48;;
42260;SDS011;27926;48.062;7.474;2023-04-15T14:18:13;8.73;;;1.95;;
42260;SDS011;27926;48.062;7.474;2023-04-15T14:20:38;16.42;;;1.80;;
42260;SDS011;27926;48.062;7.474;2023-04-15T14:23:03;7.53;;;1.58;;
42260;SDS011;27926;48.062;7.474;2023-04-15T14:25:27;6.32;;;1.35;;
42260;SDS011;27926;48.062;7.474;2023-04-15T14:27:52;4.30;;;1.75;;
42260;SDS011;27926;48.062;7.474;2023-04-15T14:30:16;3.53;;;1.38;;
42260;SDS011;27926;48.062;7.474;2023-04-15T14:32:41;4.03;;;1.52;;
42260;SDS011;27926;48.062;7.474;2023-04-15T14:35:06;7.55;;;1.23;;
42260;SDS011;27926;48.062;7.474;2023-04-15T14:37:30;6.78;;;1.25;;
42260;SDS011;27926;48.062;7.474;2023-04-15T14:39:56;3.58;;;1.20;;
42260;SDS011;27926;48.062;7.474;2023-04-15T14:42:20;4.20;;;1.35;;
42260;SDS011;27926;48.062;7.474;2023-04-15T14:44:45;6.88;;;1.42;;
42260;SDS011;27926;48.062;7.474;2023-04-15T14:47:09;4.93;;;1.13;;
42260;SDS011;27926;48.062;7.474;2023-04-15T14:49:34;6.35;;;1.23;;
42260;SDS011;27926;48.062;7.474;2023-04-15T14:51:59;1.63;;;0.65;;